Gas Alice — 5BVA4 — position and weather

sailwx.info

Track history (hours):
 
Tides and Currents Weather Stations Pressure Air Temp Water Temp Dewpoint Dewpoint Depression Visibility Wind Speed Wind Dir Waves Ship Positions

Gas Alice

Last reported at 2018-Feb-20 02:00 UTC. Time now 2018-Feb-20 02:04 UTC.
Position N 37°44' W 025°38'.

Length 96 m; draft 5.4 m.

Type: Tanker. MMSI: 209137000.

Date/timePositionNaut miles runAvg speedWind from/ knotsBaromVisibWave heightAir tempDewpointWater temp
2018-Feb-20 02:00N 37°44' W 025°38'0 0.0
2018-Feb-20 01:30N 37°44' W 025°38'0 0.2
2018-Feb-20 01:00N 37°44' W 025°38'2 4.5
2018-Feb-20 00:30N 37°43' W 025°36'611.7
2018-Feb-20 00:00N 37°40' W 025°29'612.0
2018-Feb-19 23:30N 37°39' W 025°22'612.7
2018-Feb-19 23:01N 37°39' W 025°14'612.6
2018-Feb-19 22:31N 37°39' W 025°06'612.5
2018-Feb-19 22:00N 37°39' W 024°58'612.7
2018-Feb-19 21:30N 37°39' W 024°50'612.8
2018-Feb-19 21:00N 37°40' W 024°42'612.4
2018-Feb-19 20:30N 37°39' W 024°34'612.3
2018-Feb-19 20:00N 37°40' W 024°26'612.2
2018-Feb-19 19:30N 37°40' W 024°19'612.2
2018-Feb-19 19:00N 37°40' W 024°11'712.3
2018-Feb-19 18:28N 37°40' W 024°03'  
2018-Feb-17 08:58N 37°55' W 009°14'612.3
2018-Feb-17 08:30N 37°55' W 009°07'612.1
2018-Feb-17 08:00N 37°56' W 008°60'510.3
2018-Feb-17 07:31N 37°56' W 008°53'1 1.8
2018-Feb-17 06:58N 37°57' W 008°53'0 0.0
2018-Feb-17 06:28N 37°57' W 008°53'0 0.0
2018-Feb-16 14:32N 37°57' W 008°53'0 0.2
2018-Feb-16 14:30N 37°57' W 008°53'2 3.4
2018-Feb-16 14:00N 37°55' W 008°53'5 9.5
2018-Feb-16 13:30N 37°55' W 008°59'612.8
2018-Feb-16 13:01N 37°58' W 009°06'713.3
2018-Feb-16 12:30N 38°01' W 009°14'713.3
2018-Feb-16 12:01N 38°04' W 009°21'713.4
2018-Feb-16 11:30N 38°07' W 009°29'1213.2
2018-Feb-16 10:34N 38°14' W 009°42'213.3
2018-Feb-16 10:25N 38°15' W 009°44'713.0
2018-Feb-16 09:51N 38°20' W 009°51'513.0
2018-Feb-16 09:30N 38°23' W 009°56'713.1
2018-Feb-16 09:00N 38°27' W 010°02'813.5
2018-Feb-16 08:27N 38°32' W 010°09'813.5
2018-Feb-16 07:52N 38°40' W 010°11'513.7
2018-Feb-16 07:30N 38°45' W 010°12'813.4
2018-Feb-16 06:57N 38°52' W 010°12'613.0
2018-Feb-16 06:30N 38°58' W 010°12'713.2
2018-Feb-16 06:01N 39°04' W 010°11'612.9
2018-Feb-16 05:31N 39°11' W 010°12'13611.2
2018-Feb-15 17:24N 41°09' W 008°44'2 6.1
2018-Feb-15 17:00N 41°11' W 008°43'0 0.0
2018-Feb-15 16:30N 41°11' W 008°43'0 0.0
2018-Feb-15 16:00N 41°11' W 008°43'0 0.0
2018-Feb-15 15:27N 41°11' W 008°43'0 0.0
2018-Feb-15 15:00N 41°11' W 008°43'0 0.0
2018-Feb-14 06:47N 41°11' W 008°43'0 0.5
2018-Feb-14 06:30N 41°11' W 008°43'2 4.9
2018-Feb-14 06:00N 41°09' W 008°44'2 0.0
2018-Feb-12 03:13N 41°07' W 008°46'13311.0
2018-Feb-11 15:08N 39°05' W 009°56'111.1
2018-Feb-11 15:00N 39°04' W 009°56'511.1
2018-Feb-11 14:30N 38°58' W 009°56'611.0
2018-Feb-11 13:59N 38°53' W 009°56'611.5
2018-Feb-11 13:30N 38°47' W 009°56'711.1
2018-Feb-11 12:53N 38°40' W 009°56'511.3
2018-Feb-11 12:27N 38°36' W 009°53'511.1
2018-Feb-11 12:00N 38°31' W 009°51'3810.7
2018-Feb-11 08:27N 38°03' W 009°18'511.4
2018-Feb-11 08:00N 38°01' W 009°12'611.6
2018-Feb-11 07:30N 37°58' W 009°06'611.9
2018-Feb-11 07:00N 37°55' W 008°59'5 9.1
2018-Feb-11 06:30N 37°56' W 008°53'1 1.3
2018-Feb-11 06:00N 37°57' W 008°53'0 0.0
2018-Feb-10 13:44N 37°57' W 008°53'0 0.8
2018-Feb-10 13:30N 37°57' W 008°53'2 3.6
2018-Feb-10 13:00N 37°55' W 008°53'1 2.6
2018-Feb-10 12:30N 37°54' W 008°54'510.1
2018-Feb-10 12:00N 37°56' W 009°00'612.8
2018-Feb-10 11:30N 37°59' W 009°07'612.9
2018-Feb-10 11:00N 38°01' W 009°15'612.9
2018-Feb-10 10:30N 38°04' W 009°22'  
Track history (hours):
 
Tides and Currents Weather Stations Pressure Air Temp Water Temp Dewpoint Dewpoint Depression Visibility Wind Speed Wind Dir Waves Ship Positions

Gas Alice

Last reported at 2018-Feb-20 02:00 UTC. Time now 2018-Feb-20 02:04 UTC.
Position N 37°44' W 025°38'.

Length 96 m; draft 5.4 m.

Type: Tanker. MMSI: 209137000.

Date/timePositionNaut miles runAvg speedWind from/ knotsBaromVisibWave heightAir tempDewpointWater temp
2018-Feb-20 02:00N 37°44' W 025°38'0 0.0
2018-Feb-20 01:30N 37°44' W 025°38'0 0.2
2018-Feb-20 01:00N 37°44' W 025°38'2 4.5
2018-Feb-20 00:30N 37°43' W 025°36'611.7
2018-Feb-20 00:00N 37°40' W 025°29'612.0
2018-Feb-19 23:30N 37°39' W 025°22'612.7
2018-Feb-19 23:01N 37°39' W 025°14'612.6
2018-Feb-19 22:31N 37°39' W 025°06'612.5
2018-Feb-19 22:00N 37°39' W 024°58'612.7
2018-Feb-19 21:30N 37°39' W 024°50'612.8
2018-Feb-19 21:00N 37°40' W 024°42'612.4
2018-Feb-19 20:30N 37°39' W 024°34'612.3
2018-Feb-19 20:00N 37°40' W 024°26'612.2
2018-Feb-19 19:30N 37°40' W 024°19'612.2
2018-Feb-19 19:00N 37°40' W 024°11'712.3
2018-Feb-19 18:28N 37°40' W 024°03'  
2018-Feb-17 08:58N 37°55' W 009°14'612.3
2018-Feb-17 08:30N 37°55' W 009°07'612.1
2018-Feb-17 08:00N 37°56' W 008°60'510.3
2018-Feb-17 07:31N 37°56' W 008°53'1 1.8
2018-Feb-17 06:58N 37°57' W 008°53'0 0.0
2018-Feb-17 06:28N 37°57' W 008°53'0 0.0
2018-Feb-16 14:32N 37°57' W 008°53'0 0.2
2018-Feb-16 14:30N 37°57' W 008°53'2 3.4
2018-Feb-16 14:00N 37°55' W 008°53'5 9.5
2018-Feb-16 13:30N 37°55' W 008°59'612.8
2018-Feb-16 13:01N 37°58' W 009°06'713.3
2018-Feb-16 12:30N 38°01' W 009°14'713.3
2018-Feb-16 12:01N 38°04' W 009°21'713.4
2018-Feb-16 11:30N 38°07' W 009°29'1213.2
2018-Feb-16 10:34N 38°14' W 009°42'213.3
2018-Feb-16 10:25N 38°15' W 009°44'713.0
2018-Feb-16 09:51N 38°20' W 009°51'513.0
2018-Feb-16 09:30N 38°23' W 009°56'713.1
2018-Feb-16 09:00N 38°27' W 010°02'813.5
2018-Feb-16 08:27N 38°32' W 010°09'813.5
2018-Feb-16 07:52N 38°40' W 010°11'513.7
2018-Feb-16 07:30N 38°45' W 010°12'813.4
2018-Feb-16 06:57N 38°52' W 010°12'613.0
2018-Feb-16 06:30N 38°58' W 010°12'713.2
2018-Feb-16 06:01N 39°04' W 010°11'612.9
2018-Feb-16 05:31N 39°11' W 010°12'13611.2
2018-Feb-15 17:24N 41°09' W 008°44'2 6.1
2018-Feb-15 17:00N 41°11' W 008°43'0 0.0
2018-Feb-15 16:30N 41°11' W 008°43'0 0.0
2018-Feb-15 16:00N 41°11' W 008°43'0 0.0
2018-Feb-15 15:27N 41°11' W 008°43'0 0.0
2018-Feb-15 15:00N 41°11' W 008°43'0 0.0
2018-Feb-14 06:47N 41°11' W 008°43'0 0.5
2018-Feb-14 06:30N 41°11' W 008°43'2 4.9
2018-Feb-14 06:00N 41°09' W 008°44'2 0.0
2018-Feb-12 03:13N 41°07' W 008°46'13311.0
2018-Feb-11 15:08N 39°05' W 009°56'111.1
2018-Feb-11 15:00N 39°04' W 009°56'511.1
2018-Feb-11 14:30N 38°58' W 009°56'611.0
2018-Feb-11 13:59N 38°53' W 009°56'611.5
2018-Feb-11 13:30N 38°47' W 009°56'711.1
2018-Feb-11 12:53N 38°40' W 009°56'511.3
2018-Feb-11 12:27N 38°36' W 009°53'511.1
2018-Feb-11 12:00N 38°31' W 009°51'3810.7
2018-Feb-11 08:27N 38°03' W 009°18'511.4
2018-Feb-11 08:00N 38°01' W 009°12'611.6
2018-Feb-11 07:30N 37°58' W 009°06'611.9
2018-Feb-11 07:00N 37°55' W 008°59'5 9.1
2018-Feb-11 06:30N 37°56' W 008°53'1 1.3
2018-Feb-11 06:00N 37°57' W 008°53'0 0.0
2018-Feb-10 13:44N 37°57' W 008°53'0 0.8
2018-Feb-10 13:30N 37°57' W 008°53'2 3.6
2018-Feb-10 13:00N 37°55' W 008°53'1 2.6
2018-Feb-10 12:30N 37°54' W 008°54'510.1
2018-Feb-10 12:00N 37°56' W 009°00'612.8
2018-Feb-10 11:30N 37°59' W 009°07'612.9
2018-Feb-10 11:00N 38°01' W 009°15'612.9
2018-Feb-10 10:30N 38°04' W 009°22'  

Dump ship's entire track history